sensor_id;sensor_type;location;lat;lon;timestamp;P1;durP1;ratioP1;P2;durP2;ratioP2
56481;SDS011;42384;45.186;19.958;2023-12-20T00:01:54;25.52;;;16.30;;
56481;SDS011;42384;45.186;19.958;2023-12-20T00:04:21;66.13;;;42.80;;
56481;SDS011;42384;45.186;19.958;2023-12-20T00:06:47;62.80;;;41.88;;
56481;SDS011;42384;45.186;19.958;2023-12-20T00:09:13;67.75;;;43.20;;
56481;SDS011;42384;45.186;19.958;2023-12-20T00:11:39;67.28;;;43.63;;
56481;SDS011;42384;45.186;19.958;2023-12-20T00:14:07;62.60;;;41.20;;
56481;SDS011;42384;45.186;19.958;2023-12-20T00:16:34;57.83;;;36.83;;
56481;SDS011;42384;45.186;19.958;2023-12-20T00:19:00;57.42;;;39.47;;
56481;SDS011;42384;45.186;19.958;2023-12-20T00:21:26;69.97;;;44.60;;
56481;SDS011;42384;45.186;19.958;2023-12-20T00:23:52;69.80;;;44.28;;
56481;SDS011;42384;45.186;19.958;2023-12-20T00:26:18;70.63;;;46.53;;
56481;SDS011;42384;45.186;19.958;2023-12-20T00:28:45;61.45;;;40.60;;
56481;SDS011;42384;45.186;19.958;2023-12-20T00:31:11;62.47;;;40.55;;
56481;SDS011;42384;45.186;19.958;2023-12-20T00:33:37;59.50;;;39.05;;
56481;SDS011;42384;45.186;19.958;2023-12-20T00:36:05;51.42;;;34.03;;
56481;SDS011;42384;45.186;19.958;2023-12-20T00:38:31;62.83;;;41.93;;
56481;SDS011;42384;45.186;19.958;2023-12-20T00:40:57;64.07;;;39.97;;
56481;SDS011;42384;45.186;19.958;2023-12-20T00:43:23;51.33;;;33.40;;
56481;SDS011;42384;45.186;19.958;2023-12-20T00:45:49;30.88;;;20.25;;
56481;SDS011;42384;45.186;19.958;2023-12-20T00:48:15;24.58;;;15.50;;
56481;SDS011;42384;45.186;19.958;2023-12-20T00:50:42;19.40;;;12.70;;
56481;SDS011;42384;45.186;19.958;2023-12-20T00:53:08;56.50;;;36.95;;
56481;SDS011;42384;45.186;19.958;2023-12-20T00:55:34;59.25;;;38.97;;
56481;SDS011;42384;45.186;19.958;2023-12-20T00:58:00;61.97;;;39.90;;
56481;SDS011;42384;45.186;19.958;2023-12-20T01:00:27;68.40;;;41.42;;
56481;SDS011;42384;45.186;19.958;2023-12-20T01:02:53;58.53;;;38.55;;
56481;SDS011;42384;45.186;19.958;2023-12-20T01:05:19;50.42;;;33.83;;
56481;SDS011;42384;45.186;19.958;2023-12-20T01:07:48;49.85;;;30.63;;
56481;SDS011;42384;45.186;19.958;2023-12-20T01:10:14;46.70;;;31.02;;
56481;SDS011;42384;45.186;19.958;2023-12-20T01:12:41;26.83;;;15.48;;
56481;SDS011;42384;45.186;19.958;2023-12-20T01:15:07;20.33;;;12.00;;
56481;SDS011;42384;45.186;19.958;2023-12-20T01:17:33;21.88;;;12.50;;
56481;SDS011;42384;45.186;19.958;2023-12-20T01:20:00;21.85;;;11.68;;
56481;SDS011;42384;45.186;19.958;2023-12-20T01:22:26;18.83;;;9.70;;
56481;SDS011;42384;45.186;19.958;2023-12-20T01:24:52;19.27;;;10.37;;
56481;SDS011;42384;45.186;19.958;2023-12-20T01:27:19;16.73;;;9.30;;
56481;SDS011;42384;45.186;19.958;2023-12-20T01:29:45;12.73;;;7.03;;
56481;SDS011;42384;45.186;19.958;2023-12-20T01:32:11;9.95;;;5.40;;
56481;SDS011;42384;45.186;19.958;2023-12-20T01:34:38;9.57;;;5.57;;
56481;SDS011;42384;45.186;19.958;2023-12-20T01:37:04;11.67;;;7.10;;
56481;SDS011;42384;45.186;19.958;2023-12-20T01:39:30;22.53;;;14.27;;
56481;SDS011;42384;45.186;19.958;2023-12-20T01:41:56;50.95;;;34.63;;
56481;SDS011;42384;45.186;19.958;2023-12-20T01:44:23;57.60;;;37.50;;
56481;SDS011;42384;45.186;19.958;2023-12-20T01:46:49;56.28;;;36.88;;
56481;SDS011;42384;45.186;19.958;2023-12-20T01:49:15;54.08;;;36.15;;
56481;SDS011;42384;45.186;19.958;2023-12-20T01:51:42;62.50;;;39.20;;
56481;SDS011;42384;45.186;19.958;2023-12-20T01:54:08;58.60;;;37.55;;
56481;SDS011;42384;45.186;19.958;2023-12-20T01:56:35;58.90;;;39.43;;
56481;SDS011;42384;45.186;19.958;2023-12-20T01:59:01;57.37;;;38.20;;
56481;SDS011;42384;45.186;19.958;2023-12-20T02:01:29;60.15;;;38.75;;
56481;SDS011;42384;45.186;19.958;2023-12-20T02:03:56;60.40;;;36.78;;
56481;SDS011;42384;45.186;19.958;2023-12-20T02:06:23;47.22;;;31.30;;
56481;SDS011;42384;45.186;19.958;2023-12-20T02:08:50;49.63;;;31.17;;
56481;SDS011;42384;45.186;19.958;2023-12-20T02:11:17;42.35;;;27.80;;
56481;SDS011;42384;45.186;19.958;2023-12-20T02:13:43;56.77;;;38.10;;
56481;SDS011;42384;45.186;19.958;2023-12-20T02:16:09;60.40;;;38.57;;
56481;SDS011;42384;45.186;19.958;2023-12-20T02:18:36;61.13;;;40.35;;
56481;SDS011;42384;45.186;19.958;2023-12-20T02:21:03;62.70;;;42.33;;
56481;SDS011;42384;45.186;19.958;2023-12-20T02:23:30;68.63;;;41.88;;
56481;SDS011;42384;45.186;19.958;2023-12-20T02:25:56;62.33;;;40.50;;
56481;SDS011;42384;45.186;19.958;2023-12-20T02:28:23;62.15;;;39.25;;
56481;SDS011;42384;45.186;19.958;2023-12-20T02:30:49;65.27;;;41.47;;
56481;SDS011;42384;45.186;19.958;2023-12-20T02:33:15;69.90;;;43.80;;
56481;SDS011;42384;45.186;19.958;2023-12-20T02:35:42;67.20;;;43.55;;
56481;SDS011;42384;45.186;19.958;2023-12-20T02:38:08;71.03;;;44.50;;
56481;SDS011;42384;45.186;19.958;2023-12-20T02:40:34;69.82;;;42.47;;
56481;SDS011;42384;45.186;19.958;2023-12-20T02:43:01;68.97;;;44.90;;
56481;SDS011;42384;45.186;19.958;2023-12-20T02:45:27;72.97;;;45.22;;
56481;SDS011;42384;45.186;19.958;2023-12-20T02:47:53;78.63;;;49.67;;
56481;SDS011;42384;45.186;19.958;2023-12-20T02:50:20;76.78;;;48.63;;
56481;SDS011;42384;45.186;19.958;2023-12-20T02:52:46;78.15;;;48.17;;
56481;SDS011;42384;45.186;19.958;2023-12-20T02:55:12;95.73;;;54.73;;
56481;SDS011;42384;45.186;19.958;2023-12-20T02:57:39;82.57;;;51.28;;
56481;SDS011;42384;45.186;19.958;2023-12-20T03:00:08;92.65;;;54.47;;
56481;SDS011;42384;45.186;19.958;2023-12-20T03:02:36;97.32;;;58.78;;
56481;SDS011;42384;45.186;19.958;2023-12-20T03:05:02;103.55;;;60.30;;
56481;SDS011;42384;45.186;19.958;2023-12-20T03:07:29;98.77;;;58.30;;
56481;SDS011;42384;45.186;19.958;2023-12-20T03:09:55;99.45;;;61.33;;
56481;SDS011;42384;45.186;19.958;2023-12-20T03:12:21;104.35;;;60.88;;
56481;SDS011;42384;45.186;19.958;2023-12-20T03:14:48;77.80;;;45.97;;
56481;SDS011;42384;45.186;19.958;2023-12-20T03:17:14;70.18;;;43.22;;
56481;SDS011;42384;45.186;19.958;2023-12-20T03:19:40;80.47;;;48.90;;
56481;SDS011;42384;45.186;19.958;2023-12-20T03:22:06;84.55;;;53.20;;
56481;SDS011;42384;45.186;19.958;2023-12-20T03:24:33;77.47;;;48.05;;
56481;SDS011;42384;45.186;19.958;2023-12-20T03:26:59;80.50;;;49.47;;
56481;SDS011;42384;45.186;19.958;2023-12-20T03:29:25;75.25;;;46.53;;
56481;SDS011;42384;45.186;19.958;2023-12-20T03:31:52;78.03;;;47.65;;
56481;SDS011;42384;45.186;19.958;2023-12-20T03:34:18;87.65;;;53.00;;
56481;SDS011;42384;45.186;19.958;2023-12-20T03:36:44;87.32;;;52.80;;
56481;SDS011;42384;45.186;19.958;2023-12-20T03:39:13;92.78;;;53.50;;
56481;SDS011;42384;45.186;19.958;2023-12-20T03:41:39;86.22;;;52.25;;
56481;SDS011;42384;45.186;19.958;2023-12-20T03:44:05;83.13;;;51.72;;
56481;SDS011;42384;45.186;19.958;2023-12-20T03:46:31;98.50;;;58.53;;
56481;SDS011;42384;45.186;19.958;2023-12-20T03:48:58;93.28;;;55.72;;
56481;SDS011;42384;45.186;19.958;2023-12-20T03:51:24;85.07;;;52.20;;
56481;SDS011;42384;45.186;19.958;2023-12-20T03:53:50;92.00;;;54.33;;
56481;SDS011;42384;45.186;19.958;2023-12-20T03:56:16;86.00;;;52.85;;
56481;SDS011;42384;45.186;19.958;2023-12-20T03:58:43;86.70;;;53.28;;
56481;SDS011;42384;45.186;19.958;2023-12-20T04:01:10;88.30;;;52.72;;
56481;SDS011;42384;45.186;19.958;2023-12-20T04:03:39;81.90;;;50.47;;
56481;SDS011;42384;45.186;19.958;2023-12-20T04:06:05;87.93;;;52.25;;
56481;SDS011;42384;45.186;19.958;2023-12-20T04:08:31;69.43;;;43.10;;
56481;SDS011;42384;45.186;19.958;2023-12-20T04:10:58;83.00;;;47.47;;
56481;SDS011;42384;45.186;19.958;2023-12-20T04:13:24;82.20;;;50.00;;
56481;SDS011;42384;45.186;19.958;2023-12-20T04:15:50;88.38;;;52.38;;
56481;SDS011;42384;45.186;19.958;2023-12-20T04:18:17;82.03;;;49.13;;
56481;SDS011;42384;45.186;19.958;2023-12-20T04:20:43;73.97;;;45.70;;
56481;SDS011;42384;45.186;19.958;2023-12-20T04:25:36;90.35;;;50.35;;
56481;SDS011;42384;45.186;19.958;2023-12-20T04:28:03;87.95;;;52.63;;
56481;SDS011;42384;45.186;19.958;2023-12-20T04:30:29;80.77;;;49.30;;
56481;SDS011;42384;45.186;19.958;2023-12-20T04:32:55;88.43;;;50.08;;
56481;SDS011;42384;45.186;19.958;2023-12-20T04:35:22;81.63;;;47.47;;
56481;SDS011;42384;45.186;19.958;2023-12-20T04:37:48;87.90;;;51.70;;
56481;SDS011;42384;45.186;19.958;2023-12-20T04:40:15;81.13;;;49.92;;
56481;SDS011;42384;45.186;19.958;2023-12-20T04:42:41;84.38;;;49.50;;
56481;SDS011;42384;45.186;19.958;2023-12-20T04:45:07;94.05;;;55.33;;
56481;SDS011;42384;45.186;19.958;2023-12-20T04:47:34;82.53;;;49.78;;
56481;SDS011;42384;45.186;19.958;2023-12-20T04:50:00;78.80;;;47.53;;
56481;SDS011;42384;45.186;19.958;2023-12-20T04:52:27;75.30;;;46.28;;
56481;SDS011;42384;45.186;19.958;2023-12-20T04:54:53;79.47;;;47.05;;
56481;SDS011;42384;45.186;19.958;2023-12-20T04:57:19;74.72;;;43.88;;
56481;SDS011;42384;45.186;19.958;2023-12-20T04:59:45;83.50;;;53.08;;
56481;SDS011;42384;45.186;19.958;2023-12-20T05:02:12;85.65;;;51.40;;
56481;SDS011;42384;45.186;19.958;2023-12-20T05:04:38;95.70;;;56.03;;
56481;SDS011;42384;45.186;19.958;2023-12-20T05:07:04;82.97;;;48.25;;
56481;SDS011;42384;45.186;19.958;2023-12-20T05:09:31;97.93;;;53.22;;
56481;SDS011;42384;45.186;19.958;2023-12-20T05:11:58;94.95;;;54.58;;
56481;SDS011;42384;45.186;19.958;2023-12-20T05:16:51;90.10;;;53.25;;
56481;SDS011;42384;45.186;19.958;2023-12-20T05:19:18;93.35;;;53.95;;
56481;SDS011;42384;45.186;19.958;2023-12-20T05:21:44;97.03;;;57.75;;
56481;SDS011;42384;45.186;19.958;2023-12-20T05:24:10;87.55;;;52.90;;
56481;SDS011;42384;45.186;19.958;2023-12-20T05:26:36;87.87;;;54.57;;
56481;SDS011;42384;45.186;19.958;2023-12-20T05:29:03;92.70;;;56.30;;
56481;SDS011;42384;45.186;19.958;2023-12-20T05:31:29;107.97;;;63.20;;
56481;SDS011;42384;45.186;19.958;2023-12-20T05:33:55;104.80;;;62.65;;
56481;SDS011;42384;45.186;19.958;2023-12-20T05:36:22;72.05;;;44.72;;
56481;SDS011;42384;45.186;19.958;2023-12-20T05:38:48;42.85;;;25.73;;
56481;SDS011;42384;45.186;19.958;2023-12-20T05:41:15;48.85;;;28.30;;
56481;SDS011;42384;45.186;19.958;2023-12-20T05:43:42;45.25;;;27.98;;
56481;SDS011;42384;45.186;19.958;2023-12-20T05:46:10;56.57;;;33.27;;
56481;SDS011;42384;45.186;19.958;2023-12-20T05:48:37;78.90;;;46.50;;
56481;SDS011;42384;45.186;19.958;2023-12-20T05:51:03;80.28;;;48.53;;
56481;SDS011;42384;45.186;19.958;2023-12-20T05:53:30;86.15;;;49.60;;
56481;SDS011;42384;45.186;19.958;2023-12-20T05:55:56;102.55;;;61.08;;
56481;SDS011;42384;45.186;19.958;2023-12-20T05:58:22;107.47;;;64.50;;
56481;SDS011;42384;45.186;19.958;2023-12-20T06:00:48;109.68;;;63.83;;
56481;SDS011;42384;45.186;19.958;2023-12-20T06:03:15;100.53;;;62.60;;
56481;SDS011;42384;45.186;19.958;2023-12-20T06:05:41;112.07;;;66.35;;
56481;SDS011;42384;45.186;19.958;2023-12-20T06:08:08;106.03;;;63.50;;
56481;SDS011;42384;45.186;19.958;2023-12-20T06:10:34;98.67;;;59.27;;
56481;SDS011;42384;45.186;19.958;2023-12-20T06:13:00;94.40;;;58.55;;
56481;SDS011;42384;45.186;19.958;2023-12-20T06:15:27;110.50;;;63.07;;
56481;SDS011;42384;45.186;19.958;2023-12-20T06:17:53;79.78;;;49.33;;
56481;SDS011;42384;45.186;19.958;2023-12-20T06:20:19;79.68;;;49.13;;
56481;SDS011;42384;45.186;19.958;2023-12-20T06:22:45;89.53;;;54.38;;
56481;SDS011;42384;45.186;19.958;2023-12-20T06:25:12;102.80;;;61.37;;
56481;SDS011;42384;45.186;19.958;2023-12-20T06:27:38;105.33;;;64.80;;
56481;SDS011;42384;45.186;19.958;2023-12-20T06:30:06;102.57;;;61.28;;
56481;SDS011;42384;45.186;19.958;2023-12-20T06:32:34;89.95;;;54.35;;
56481;SDS011;42384;45.186;19.958;2023-12-20T06:35:01;88.75;;;53.90;;
56481;SDS011;42384;45.186;19.958;2023-12-20T06:37:27;77.75;;;47.80;;
56481;SDS011;42384;45.186;19.958;2023-12-20T06:39:53;108.65;;;63.53;;
56481;SDS011;42384;45.186;19.958;2023-12-20T06:42:20;84.57;;;51.47;;
56481;SDS011;42384;45.186;19.958;2023-12-20T06:44:46;82.85;;;50.17;;
56481;SDS011;42384;45.186;19.958;2023-12-20T06:47:12;45.00;;;26.37;;
56481;SDS011;42384;45.186;19.958;2023-12-20T06:49:39;40.03;;;22.63;;
56481;SDS011;42384;45.186;19.958;2023-12-20T06:52:06;24.63;;;11.85;;
56481;SDS011;42384;45.186;19.958;2023-12-20T06:54:32;12.90;;;6.65;;
56481;SDS011;42384;45.186;19.958;2023-12-20T06:59:25;24.40;;;14.75;;
56481;SDS011;42384;45.186;19.958;2023-12-20T07:01:52;18.33;;;11.00;;
56481;SDS011;42384;45.186;19.958;2023-12-20T07:04:19;16.05;;;7.85;;
56481;SDS011;42384;45.186;19.958;2023-12-20T07:06:47;14.95;;;7.68;;
56481;SDS011;42384;45.186;19.958;2023-12-20T07:09:16;14.80;;;8.15;;
56481;SDS011;42384;45.186;19.958;2023-12-20T07:11:42;15.73;;;8.18;;
56481;SDS011;42384;45.186;19.958;2023-12-20T07:14:09;14.83;;;7.83;;
56481;SDS011;42384;45.186;19.958;2023-12-20T07:16:35;12.30;;;8.10;;
56481;SDS011;42384;45.186;19.958;2023-12-20T07:19:01;20.83;;;11.23;;
56481;SDS011;42384;45.186;19.958;2023-12-20T07:21:28;29.42;;;14.93;;
56481;SDS011;42384;45.186;19.958;2023-12-20T07:23:54;24.23;;;13.50;;
56481;SDS011;42384;45.186;19.958;2023-12-20T07:26:21;24.63;;;13.73;;
56481;SDS011;42384;45.186;19.958;2023-12-20T07:31:17;60.00;;;35.80;;
56481;SDS011;42384;45.186;19.958;2023-12-20T07:33:43;50.45;;;28.92;;
56481;SDS011;42384;45.186;19.958;2023-12-20T07:36:10;61.33;;;37.20;;
56481;SDS011;42384;45.186;19.958;2023-12-20T07:38:36;66.03;;;37.80;;
56481;SDS011;42384;45.186;19.958;2023-12-20T07:41:03;66.25;;;37.60;;
56481;SDS011;42384;45.186;19.958;2023-12-20T07:43:30;58.22;;;36.85;;
56481;SDS011;42384;45.186;19.958;2023-12-20T07:45:56;58.75;;;36.78;;
56481;SDS011;42384;45.186;19.958;2023-12-20T07:48:22;67.82;;;37.67;;
56481;SDS011;42384;45.186;19.958;2023-12-20T07:50:48;67.38;;;40.10;;
56481;SDS011;42384;45.186;19.958;2023-12-20T07:53:15;61.00;;;37.13;;
56481;SDS011;42384;45.186;19.958;2023-12-20T07:55:41;72.55;;;37.70;;
56481;SDS011;42384;45.186;19.958;2023-12-20T07:58:08;63.72;;;36.92;;
56481;SDS011;42384;45.186;19.958;2023-12-20T08:00:34;64.22;;;38.13;;
56481;SDS011;42384;45.186;19.958;2023-12-20T08:03:00;73.63;;;43.30;;
56481;SDS011;42384;45.186;19.958;2023-12-20T08:05:28;69.47;;;40.92;;
56481;SDS011;42384;45.186;19.958;2023-12-20T08:07:54;76.85;;;43.88;;
56481;SDS011;42384;45.186;19.958;2023-12-20T08:10:21;82.38;;;48.13;;
56481;SDS011;42384;45.186;19.958;2023-12-20T08:12:47;79.57;;;45.80;;
56481;SDS011;42384;45.186;19.958;2023-12-20T08:15:13;86.85;;;52.38;;
56481;SDS011;42384;45.186;19.958;2023-12-20T08:17:40;87.90;;;57.47;;
56481;SDS011;42384;45.186;19.958;2023-12-20T08:20:06;103.38;;;63.22;;
56481;SDS011;42384;45.186;19.958;2023-12-20T08:22:32;105.72;;;63.50;;
56481;SDS011;42384;45.186;19.958;2023-12-20T08:24:59;112.28;;;65.60;;
56481;SDS011;42384;45.186;19.958;2023-12-20T08:27:25;102.53;;;61.85;;
56481;SDS011;42384;45.186;19.958;2023-12-20T08:29:51;99.38;;;59.63;;
56481;SDS011;42384;45.186;19.958;2023-12-20T08:32:18;98.93;;;60.55;;
56481;SDS011;42384;45.186;19.958;2023-12-20T08:34:44;87.78;;;51.08;;
56481;SDS011;42384;45.186;19.958;2023-12-20T08:37:10;84.50;;;48.78;;
56481;SDS011;42384;45.186;19.958;2023-12-20T08:39:36;85.72;;;51.17;;
56481;SDS011;42384;45.186;19.958;2023-12-20T08:42:02;82.07;;;52.00;;
56481;SDS011;42384;45.186;19.958;2023-12-20T08:44:29;83.63;;;52.27;;
56481;SDS011;42384;45.186;19.958;2023-12-20T08:46:55;78.93;;;51.10;;
56481;SDS011;42384;45.186;19.958;2023-12-20T08:49:22;83.38;;;52.17;;
56481;SDS011;42384;45.186;19.958;2023-12-20T08:51:48;87.18;;;53.13;;
56481;SDS011;42384;45.186;19.958;2023-12-20T08:54:14;105.03;;;62.70;;
56481;SDS011;42384;45.186;19.958;2023-12-20T08:56:41;95.90;;;60.30;;
56481;SDS011;42384;45.186;19.958;2023-12-20T08:59:08;102.47;;;64.75;;
56481;SDS011;42384;45.186;19.958;2023-12-20T09:01:34;95.32;;;60.83;;
56481;SDS011;42384;45.186;19.958;2023-12-20T09:04:00;94.30;;;59.38;;
56481;SDS011;42384;45.186;19.958;2023-12-20T09:06:26;103.53;;;62.30;;
56481;SDS011;42384;45.186;19.958;2023-12-20T09:08:53;98.65;;;61.58;;
56481;SDS011;42384;45.186;19.958;2023-12-20T09:11:19;100.40;;;64.10;;
56481;SDS011;42384;45.186;19.958;2023-12-20T09:13:45;103.90;;;65.50;;
56481;SDS011;42384;45.186;19.958;2023-12-20T09:16:11;106.38;;;66.32;;
56481;SDS011;42384;45.186;19.958;2023-12-20T09:18:38;112.97;;;70.38;;
56481;SDS011;42384;45.186;19.958;2023-12-20T09:21:05;116.77;;;72.53;;
56481;SDS011;42384;45.186;19.958;2023-12-20T09:23:31;122.15;;;79.63;;
56481;SDS011;42384;45.186;19.958;2023-12-20T09:25:57;115.43;;;74.97;;
56481;SDS011;42384;45.186;19.958;2023-12-20T09:28:23;114.50;;;74.03;;
56481;SDS011;42384;45.186;19.958;2023-12-20T09:30:49;118.57;;;77.13;;
56481;SDS011;42384;45.186;19.958;2023-12-20T09:33:15;126.05;;;78.82;;
56481;SDS011;42384;45.186;19.958;2023-12-20T09:35:42;117.10;;;78.72;;
56481;SDS011;42384;45.186;19.958;2023-12-20T09:38:09;126.88;;;83.18;;
56481;SDS011;42384;45.186;19.958;2023-12-20T09:40:36;120.25;;;80.35;;
56481;SDS011;42384;45.186;19.958;2023-12-20T09:43:08;125.53;;;83.03;;
56481;SDS011;42384;45.186;19.958;2023-12-20T09:45:36;119.00;;;78.65;;
56481;SDS011;42384;45.186;19.958;2023-12-20T09:48:03;126.68;;;82.15;;
56481;SDS011;42384;45.186;19.958;2023-12-20T09:50:30;124.88;;;81.05;;
56481;SDS011;42384;45.186;19.958;2023-12-20T09:52:57;119.47;;;78.22;;
56481;SDS011;42384;45.186;19.958;2023-12-20T09:55:25;129.77;;;83.07;;
56481;SDS011;42384;45.186;19.958;2023-12-20T09:57:51;120.25;;;79.95;;
56481;SDS011;42384;45.186;19.958;2023-12-20T10:00:17;131.20;;;88.45;;
56481;SDS011;42384;45.186;19.958;2023-12-20T10:03:05;127.60;;;86.20;;
56481;SDS011;42384;45.186;19.958;2023-12-20T10:05:31;135.88;;;90.50;;
56481;SDS011;42384;45.186;19.958;2023-12-20T10:07:57;133.38;;;87.15;;
56481;SDS011;42384;45.186;19.958;2023-12-20T10:10:24;138.50;;;90.97;;
56481;SDS011;42384;45.186;19.958;2023-12-20T10:13:03;136.98;;;88.28;;
56481;SDS011;42384;45.186;19.958;2023-12-20T10:15:29;132.07;;;89.05;;
56481;SDS011;42384;45.186;19.958;2023-12-20T10:17:56;132.57;;;89.70;;
56481;SDS011;42384;45.186;19.958;2023-12-20T10:20:23;138.40;;;90.68;;
56481;SDS011;42384;45.186;19.958;2023-12-20T10:22:49;141.40;;;93.38;;
56481;SDS011;42384;45.186;19.958;2023-12-20T10:25:18;136.85;;;91.00;;
56481;SDS011;42384;45.186;19.958;2023-12-20T10:27:44;143.43;;;93.10;;
56481;SDS011;42384;45.186;19.958;2023-12-20T10:30:11;130.57;;;87.97;;
56481;SDS011;42384;45.186;19.958;2023-12-20T10:32:37;135.57;;;92.50;;
56481;SDS011;42384;45.186;19.958;2023-12-20T10:35:03;141.02;;;91.47;;
56481;SDS011;42384;45.186;19.958;2023-12-20T10:37:30;142.40;;;91.87;;
56481;SDS011;42384;45.186;19.958;2023-12-20T10:39:56;140.50;;;92.10;;
56481;SDS011;42384;45.186;19.958;2023-12-20T10:42:24;139.88;;;94.22;;
56481;SDS011;42384;45.186;19.958;2023-12-20T10:44:51;135.00;;;91.25;;
56481;SDS011;42384;45.186;19.958;2023-12-20T10:47:19;141.75;;;96.35;;
56481;SDS011;42384;45.186;19.958;2023-12-20T10:49:45;145.50;;;95.53;;
56481;SDS011;42384;45.186;19.958;2023-12-20T10:52:12;140.50;;;96.95;;
56481;SDS011;42384;45.186;19.958;2023-12-20T10:54:39;152.15;;;100.97;;
56481;SDS011;42384;45.186;19.958;2023-12-20T10:57:06;147.60;;;98.70;;
56481;SDS011;42384;45.186;19.958;2023-12-20T10:59:38;149.77;;;103.90;;
56481;SDS011;42384;45.186;19.958;2023-12-20T11:02:05;146.90;;;97.07;;
56481;SDS011;42384;45.186;19.958;2023-12-20T11:04:36;139.55;;;94.93;;
56481;SDS011;42384;45.186;19.958;2023-12-20T11:07:10;146.68;;;97.57;;
56481;SDS011;42384;45.186;19.958;2023-12-20T11:09:43;146.63;;;96.95;;
56481;SDS011;42384;45.186;19.958;2023-12-20T11:14:57;155.63;;;98.45;;
56481;SDS011;42384;45.186;19.958;2023-12-20T11:17:29;137.43;;;93.15;;
56481;SDS011;42384;45.186;19.958;2023-12-20T11:22:22;144.27;;;92.77;;
56481;SDS011;42384;45.186;19.958;2023-12-20T11:24:49;145.00;;;92.45;;
56481;SDS011;42384;45.186;19.958;2023-12-20T11:27:16;148.63;;;96.20;;
56481;SDS011;42384;45.186;19.958;2023-12-20T11:29:50;150.13;;;97.95;;
56481;SDS011;42384;45.186;19.958;2023-12-20T11:34:53;145.63;;;94.18;;
56481;SDS011;42384;45.186;19.958;2023-12-20T11:37:20;145.15;;;96.10;;
56481;SDS011;42384;45.186;19.958;2023-12-20T11:39:54;149.70;;;96.82;;
56481;SDS011;42384;45.186;19.958;2023-12-20T11:42:21;139.95;;;91.85;;
56481;SDS011;42384;45.186;19.958;2023-12-20T11:44:47;136.10;;;89.73;;
56481;SDS011;42384;45.186;19.958;2023-12-20T11:47:14;131.68;;;87.35;;
56481;SDS011;42384;45.186;19.958;2023-12-20T11:49:41;133.40;;;85.82;;
56481;SDS011;42384;45.186;19.958;2023-12-20T11:52:07;121.03;;;84.43;;
56481;SDS011;42384;45.186;19.958;2023-12-20T11:54:33;130.65;;;85.10;;
56481;SDS011;42384;45.186;19.958;2023-12-20T11:57:00;126.20;;;81.83;;
56481;SDS011;42384;45.186;19.958;2023-12-20T11:59:26;126.85;;;81.05;;
56481;SDS011;42384;45.186;19.958;2023-12-20T12:01:52;124.07;;;82.57;;
56481;SDS011;42384;45.186;19.958;2023-12-20T12:04:21;122.30;;;78.78;;
56481;SDS011;42384;45.186;19.958;2023-12-20T12:06:48;118.72;;;75.45;;
56481;SDS011;42384;45.186;19.958;2023-12-20T12:09:14;120.53;;;77.47;;
56481;SDS011;42384;45.186;19.958;2023-12-20T12:11:40;117.35;;;74.65;;
56481;SDS011;42384;45.186;19.958;2023-12-20T12:14:06;128.50;;;79.30;;
56481;SDS011;42384;45.186;19.958;2023-12-20T12:16:33;118.73;;;76.90;;
56481;SDS011;42384;45.186;19.958;2023-12-20T12:18:59;122.87;;;78.47;;
56481;SDS011;42384;45.186;19.958;2023-12-20T12:21:25;124.25;;;79.20;;
56481;SDS011;42384;45.186;19.958;2023-12-20T12:23:52;129.53;;;79.17;;
56481;SDS011;42384;45.186;19.958;2023-12-20T12:26:18;125.82;;;79.22;;
56481;SDS011;42384;45.186;19.958;2023-12-20T12:28:45;127.53;;;78.97;;
56481;SDS011;42384;45.186;19.958;2023-12-20T12:31:15;126.57;;;79.03;;
56481;SDS011;42384;45.186;19.958;2023-12-20T12:33:41;118.97;;;75.07;;
56481;SDS011;42384;45.186;19.958;2023-12-20T12:36:09;127.35;;;76.72;;
56481;SDS011;42384;45.186;19.958;2023-12-20T12:38:36;119.85;;;77.90;;
56481;SDS011;42384;45.186;19.958;2023-12-20T12:41:03;127.47;;;79.35;;
56481;SDS011;42384;45.186;19.958;2023-12-20T12:43:30;128.73;;;79.47;;
56481;SDS011;42384;45.186;19.958;2023-12-20T12:45:57;128.23;;;79.45;;
56481;SDS011;42384;45.186;19.958;2023-12-20T12:48:23;130.20;;;82.35;;
56481;SDS011;42384;45.186;19.958;2023-12-20T12:50:49;135.27;;;82.25;;
56481;SDS011;42384;45.186;19.958;2023-12-20T12:53:18;135.48;;;83.95;;
56481;SDS011;42384;45.186;19.958;2023-12-20T12:55:44;134.30;;;84.22;;
56481;SDS011;42384;45.186;19.958;2023-12-20T12:58:11;138.57;;;84.53;;
56481;SDS011;42384;45.186;19.958;2023-12-20T13:00:37;135.50;;;84.47;;
56481;SDS011;42384;45.186;19.958;2023-12-20T13:03:03;139.98;;;85.32;;
56481;SDS011;42384;45.186;19.958;2023-12-20T13:05:29;141.00;;;85.40;;
56481;SDS011;42384;45.186;19.958;2023-12-20T13:07:56;138.13;;;81.30;;
56481;SDS011;42384;45.186;19.958;2023-12-20T13:10:23;135.63;;;81.70;;
56481;SDS011;42384;45.186;19.958;2023-12-20T13:12:49;133.15;;;80.43;;
56481;SDS011;42384;45.186;19.958;2023-12-20T13:15:16;135.38;;;80.38;;
56481;SDS011;42384;45.186;19.958;2023-12-20T13:17:42;132.02;;;78.80;;
56481;SDS011;42384;45.186;19.958;2023-12-20T13:20:08;121.67;;;77.10;;
56481;SDS011;42384;45.186;19.958;2023-12-20T13:22:35;125.73;;;77.37;;
56481;SDS011;42384;45.186;19.958;2023-12-20T13:25:01;136.70;;;77.67;;
56481;SDS011;42384;45.186;19.958;2023-12-20T13:27:28;125.93;;;76.63;;
56481;SDS011;42384;45.186;19.958;2023-12-20T13:29:54;128.88;;;74.53;;
56481;SDS011;42384;45.186;19.958;2023-12-20T13:32:20;119.72;;;73.05;;
56481;SDS011;42384;45.186;19.958;2023-12-20T13:34:47;120.40;;;72.60;;
56481;SDS011;42384;45.186;19.958;2023-12-20T13:37:13;116.75;;;71.25;;
56481;SDS011;42384;45.186;19.958;2023-12-20T13:39:39;127.45;;;73.28;;
56481;SDS011;42384;45.186;19.958;2023-12-20T13:42:06;125.10;;;73.45;;
56481;SDS011;42384;45.186;19.958;2023-12-20T13:44:32;125.22;;;73.47;;
56481;SDS011;42384;45.186;19.958;2023-12-20T13:46:59;123.63;;;72.70;;
56481;SDS011;42384;45.186;19.958;2023-12-20T13:51:53;122.93;;;71.53;;
56481;SDS011;42384;45.186;19.958;2023-12-20T13:54:24;123.50;;;71.55;;
56481;SDS011;42384;45.186;19.958;2023-12-20T13:56:50;119.28;;;68.82;;
56481;SDS011;42384;45.186;19.958;2023-12-20T13:59:16;108.97;;;67.53;;
56481;SDS011;42384;45.186;19.958;2023-12-20T14:01:43;114.27;;;68.73;;
56481;SDS011;42384;45.186;19.958;2023-12-20T14:04:09;120.97;;;69.97;;
56481;SDS011;42384;45.186;19.958;2023-12-20T14:06:36;111.78;;;66.72;;
56481;SDS011;42384;45.186;19.958;2023-12-20T14:09:03;126.82;;;70.10;;
56481;SDS011;42384;45.186;19.958;2023-12-20T14:11:29;122.60;;;70.45;;
56481;SDS011;42384;45.186;19.958;2023-12-20T14:13:55;121.65;;;71.60;;
56481;SDS011;42384;45.186;19.958;2023-12-20T14:16:23;125.60;;;71.53;;
56481;SDS011;42384;45.186;19.958;2023-12-20T14:18:50;123.13;;;71.40;;
56481;SDS011;42384;45.186;19.958;2023-12-20T14:21:17;135.65;;;75.53;;